Dawson Springs, Kentucky
Current Conditions -  °F | °C
As of 5:15 AM on Sunday 28 Dec 2014 (Local Time) from K2I0 Reporting Station
Overcast Overcast  
Wind Chill: 31°   Ceiling: 1200
Heat Index: 38°   Visibility: 10mi
Dew Point: 38°   Wind: 10mph
Humidity: 100%   Direction: 350°N
Pressure: 30.15"   Gusts: NA
Location:  37.17°N, 87.69°W
Report Text: K2I0 281115Z AUTO 35009KT 10SM BKN012 OVC029 04/04 A3015 RMK AO2 T00350035
Loading
Personal Weather Stations






























Interactive Weather Map New forecast layout! Learn more

10-Day Weather Forecast

Advertisements
Track Severe Weather on mobile